Time;durP1;ratioP1;P1;durP2;ratioP2;P2;SDS_P1;SDS_P2;PMS_P1;PMS_P2;Temp;Humidity;BMP_temperature;BMP_pressure;BME280_temperature;BME280_humidity;BME280_pressure;Samples;Min_cycle;Max_cycle;Signal;HPM_P1;HPM_P2
2022/01/02 00:00:40;;;;;;;1.23;1.23;;;4.90;90.50;;;;;;5041636;28;20485;-57
2022/01/02 00:03:07;;;;;;;1.50;1.50;;;4.90;90.50;;;;;;5042005;28;20124;-57
2022/01/02 00:05:38;;;;;;;1.38;1.38;;;4.90;90.40;;;;;;5034783;28;20550;-58
2022/01/02 00:08:09;;;;;;;1.30;1.30;;;4.90;90.20;;;;;;5051221;28;20106;-57
2022/01/02 00:10:55;;;;;;;1.45;1.40;;;4.90;90.00;;;;;;5053812;28;20021;-54
2022/01/02 00:13:25;;;;;;;1.45;1.45;;;4.90;89.50;;;;;;5053702;28;20133;-56
2022/01/02 00:15:56;;;;;;;1.15;1.15;;;4.80;89.20;;;;;;5054015;28;20071;-57
2022/01/02 00:18:26;;;;;;;1.10;1.10;;;4.70;88.80;;;;;;5053908;28;20503;-57
2022/01/02 00:20:52;;;;;;;1.20;1.20;;;4.70;88.80;;;;;;5049955;28;20493;-56
2022/01/02 00:23:23;;;;;;;1.20;1.20;;;4.70;88.70;;;;;;5053568;28;20471;-57
2022/01/02 00:25:54;;;;;;;1.30;1.30;;;4.60;88.30;;;;;;5053843;28;20120;-56
2022/01/02 00:28:20;;;;;;;1.45;1.45;;;4.60;88.20;;;;;;5046294;28;20037;-57
2022/01/02 00:30:48;;;;;;;1.60;1.50;;;4.50;88.00;;;;;;5049441;28;20047;-56
2022/01/02 00:33:15;;;;;;;1.77;1.67;;;4.50;87.90;;;;;;5053313;28;20104;-56
2022/01/02 00:35:40;;;;;;;1.48;1.40;;;4.40;87.80;;;;;;5053224;28;20025;-57
2022/01/02 00:38:13;;;;;;;1.55;1.55;;;4.40;88.10;;;;;;5047470;28;20028;-56
2022/01/02 00:40:43;;;;;;;1.17;1.17;;;4.30;88.40;;;;;;5049608;28;20036;-56
2022/01/02 00:43:13;;;;;;;1.42;1.40;;;4.30;88.70;;;;;;5053187;28;20473;-55
2022/01/02 00:45:45;;;;;;;1.30;1.30;;;4.30;88.90;;;;;;5053047;28;20112;-56
2022/01/02 00:48:26;;;;;;;1.90;1.30;;;4.30;88.90;;;;;;5053203;28;20017;-57
2022/01/02 00:51:00;;;;;;;1.50;1.40;;;4.30;88.80;;;;;;5053127;28;20049;-55
2022/01/02 00:53:33;;;;;;;1.50;1.50;;;4.30;89.00;;;;;;5053450;28;20037;-57
2022/01/02 00:56:00;;;;;;;1.52;1.52;;;4.30;89.10;;;;;;5040709;28;20032;-55
2022/01/02 00:59:00;;;;;;;1.75;1.70;;;4.30;88.90;;;;;;5045739;28;20513;-57
2022/01/02 01:01:33;;;;;;;1.52;1.50;;;4.20;88.40;;;;;;5038819;28;20036;-56
2022/01/02 01:04:01;;;;;;;1.40;1.40;;;4.20;88.70;;;;;;5047476;28;20072;-55
2022/01/02 01:06:33;;;;;;;1.67;1.67;;;4.20;89.10;;;;;;5052216;28;20481;-58
2022/01/02 01:09:04;;;;;;;1.42;1.42;;;4.20;89.00;;;;;;5048653;28;20039;-55
2022/01/02 01:11:30;;;;;;;1.58;1.58;;;4.20;88.40;;;;;;5046196;28;20032;-58
2022/01/02 01:13:58;;;;;;;1.40;1.40;;;4.10;88.80;;;;;;5045681;28;20032;-57
2022/01/02 01:16:24;;;;;;;1.40;1.40;;;4.10;88.20;;;;;;5052689;28;20112;-58
2022/01/02 01:18:50;;;;;;;1.40;1.40;;;4.10;87.50;;;;;;5052752;28;20109;-57
2022/01/02 01:21:16;;;;;;;1.40;1.40;;;4.10;87.10;;;;;;5052691;28;20037;-58
2022/01/02 01:23:42;;;;;;;1.30;1.30;;;4.10;86.80;;;;;;5052724;28;20044;-56
2022/01/02 01:26:10;;;;;;;1.40;1.40;;;4.10;86.40;;;;;;5052764;28;20013;-56
2022/01/02 01:28:36;;;;;;;1.23;1.23;;;4.10;86.40;;;;;;5042299;28;20029;-57
2022/01/02 01:31:03;;;;;;;1.40;1.40;;;4.10;86.10;;;;;;5050666;28;20055;-57
2022/01/02 01:33:29;;;;;;;1.38;1.38;;;4.00;85.50;;;;;;5052664;28;20036;-56
2022/01/02 01:35:54;;;;;;;1.40;1.40;;;4.00;85.00;;;;;;5039791;28;20025;-57
2022/01/02 01:38:20;;;;;;;1.40;1.40;;;4.00;84.60;;;;;;5042952;28;20104;-58
2022/01/02 01:40:57;;;;;;;1.20;1.20;;;4.00;84.30;;;;;;5052388;28;20032;-57
2022/01/02 01:43:36;;;;;;;1.45;1.45;;;4.00;84.00;;;;;;5054865;28;20388;-57
2022/01/02 01:46:03;;;;;;;1.30;1.30;;;4.00;83.90;;;;;;5049210;28;20029;-57
2022/01/02 01:48:29;;;;;;;1.33;1.33;;;3.90;83.40;;;;;;5045678;28;20078;-57
2022/01/02 01:50:54;;;;;;;1.38;1.38;;;3.90;83.50;;;;;;5044232;28;20033;-54
2022/01/02 01:53:20;;;;;;;1.40;1.30;;;3.90;83.20;;;;;;5056452;28;20065;-56
2022/01/02 01:55:46;;;;;;;1.17;1.17;;;3.90;82.90;;;;;;5042683;28;20112;-57
2022/01/02 01:58:12;;;;;;;1.23;1.23;;;3.90;82.80;;;;;;5048778;28;20025;-56
2022/01/02 02:00:38;;;;;;;1.40;1.30;;;3.90;82.40;;;;;;5054206;28;20033;-57
2022/01/02 02:03:04;;;;;;;1.17;1.10;;;3.90;82.00;;;;;;5051212;28;20420;-57
2022/01/02 02:05:30;;;;;;;1.20;1.20;;;3.90;81.70;;;;;;5054240;28;20099;-57
2022/01/02 02:07:56;;;;;;;1.40;1.40;;;3.90;81.50;;;;;;5055950;28;20029;-57
2022/01/02 02:10:34;;;;;;;1.25;1.25;;;3.80;81.20;;;;;;5056140;28;20021;-54
2022/01/02 02:13:02;;;;;;;1.17;1.17;;;3.80;81.20;;;;;;5056161;28;20051;-56
2022/01/02 02:15:28;;;;;;;1.40;1.40;;;3.80;81.00;;;;;;5043012;28;20096;-57
2022/01/02 02:17:54;;;;;;;1.30;1.30;;;3.80;81.00;;;;;;5056022;28;20497;-56
2022/01/02 02:20:35;;;;;;;1.33;1.33;;;3.80;80.70;;;;;;5048219;28;20083;-56
2022/01/02 02:23:02;;;;;;;;;;;3.80;80.60;;;;;;5044187;28;20078;-54
2022/01/02 02:25:33;;;;;;;1.55;1.55;;;3.70;80.00;;;;;;5055802;28;19905;-55
2022/01/02 02:28:04;;;;;;;1.50;1.50;;;3.70;80.70;;;;;;5047711;28;20021;-56
2022/01/02 02:30:33;;;;;;;1.30;1.30;;;3.70;80.50;;;;;;5050997;28;20039;-57
2022/01/02 02:33:01;;;;;;;1.70;1.60;;;3.70;80.20;;;;;;5055663;28;20021;-57
2022/01/02 02:35:29;;;;;;;1.35;1.30;;;3.60;79.60;;;;;;5046994;28;20108;-57
2022/01/02 02:37:55;;;;;;;1.65;1.55;;;3.60;79.40;;;;;;5050019;28;20025;-57
2022/01/02 02:40:23;;;;;;;1.50;1.50;;;3.60;79.60;;;;;;5055435;28;20021;-56
2022/01/02 02:42:53;;;;;;;1.40;1.40;;;3.60;79.40;;;;;;5055721;28;20044;-56
2022/01/02 02:51:12;;;;;;;1.45;1.45;;;3.60;78.40;;;;;;5055406;28;20048;-56
2022/01/02 02:53:45;;;;;;;1.70;1.67;;;3.60;78.30;;;;;;5053800;28;20021;-56
2022/01/02 02:56:21;;;;;;;1.60;1.60;;;3.50;77.70;;;;;;5055538;28;20056;-57
2022/01/02 02:58:52;;;;;;;1.70;1.60;;;3.50;77.40;;;;;;5041743;28;20064;-54
2022/01/02 03:01:20;;;;;;;1.70;1.60;;;3.50;77.30;;;;;;5055132;28;20033;-54
2022/01/02 03:03:47;;;;;;;1.80;1.70;;;3.50;77.20;;;;;;5055031;28;20040;-54
2022/01/02 03:06:13;;;;;;;1.60;1.50;;;3.50;76.50;;;;;;5055111;28;20048;-57
2022/01/02 03:08:41;;;;;;;1.90;1.80;;;3.40;76.30;;;;;;5055232;28;20049;-56
2022/01/02 03:11:09;;;;;;;1.80;1.70;;;3.50;75.90;;;;;;5049086;28;20034;-57
2022/01/02 03:13:36;;;;;;;1.80;1.70;;;3.40;75.40;;;;;;5049658;28;20033;-58
2022/01/02 03:16:02;;;;;;;1.75;1.65;;;3.40;75.30;;;;;;5054898;28;20056;-56
2022/01/02 03:18:27;;;;;;;1.80;1.70;;;3.40;74.20;;;;;;5054783;28;20036;-58
2022/01/02 03:20:53;;;;;;;1.65;1.55;;;3.40;74.00;;;;;;5048663;28;20029;-56
2022/01/02 03:23:19;;;;;;;1.50;1.50;;;3.30;74.20;;;;;;5048053;28;20072;-56
2022/01/02 03:25:45;;;;;;;1.70;1.60;;;3.40;74.50;;;;;;5054606;28;20071;-55
2022/01/02 03:28:10;;;;;;;1.45;1.45;;;3.30;74.70;;;;;;5052929;28;20496;-56
2022/01/02 03:30:36;;;;;;;1.67;1.60;;;3.30;74.90;;;;;;5054905;28;20021;-55
2022/01/02 03:33:02;;;;;;;1.50;1.50;;;3.30;74.90;;;;;;5054541;28;20032;-55
2022/01/02 03:35:28;;;;;;;1.83;1.73;;;3.40;75.20;;;;;;5049177;28;20373;-57
2022/01/02 03:37:55;;;;;;;1.77;1.67;;;3.30;75.60;;;;;;5054430;28;20103;-57
2022/01/02 03:40:20;;;;;;;1.60;1.60;;;3.40;76.10;;;;;;5054354;28;20021;-57
2022/01/02 03:42:46;;;;;;;2.00;1.90;;;3.30;76.10;;;;;;5054504;28;20039;-58
2022/01/02 03:45:12;;;;;;;1.65;1.55;;;3.40;76.60;;;;;;5039171;28;20019;-57
2022/01/02 03:47:38;;;;;;;1.63;1.52;;;3.30;76.70;;;;;;5044537;28;20032;-57
2022/01/02 03:50:05;;;;;;;1.65;1.60;;;3.30;76.70;;;;;;5054470;28;20472;-56
2022/01/02 03:52:31;;;;;;;1.55;1.55;;;3.40;77.00;;;;;;5054390;28;20029;-58
2022/01/02 03:54:57;;;;;;;1.55;1.50;;;3.40;77.10;;;;;;5040458;28;20037;-57
2022/01/02 03:57:23;;;;;;;1.58;1.58;;;3.40;77.20;;;;;;5049459;28;20406;-56
2022/01/02 03:59:49;;;;;;;2.03;1.92;;;3.40;77.40;;;;;;5049711;28;20029;-57
2022/01/02 04:02:15;;;;;;;1.52;1.52;;;3.40;77.40;;;;;;5051077;28;20452;-57
2022/01/02 04:04:41;;;;;;;1.60;1.50;;;3.40;77.50;;;;;;5053410;28;20152;-57
2022/01/02 04:07:07;;;;;;;2.22;1.85;;;3.30;77.60;;;;;;5053534;28;20025;-55
2022/01/02 04:09:33;;;;;;;1.50;1.50;;;3.30;77.80;;;;;;5053763;28;20044;-56
2022/01/02 04:11:59;;;;;;;2.00;1.90;;;3.30;78.00;;;;;;5053631;28;20035;-57
2022/01/02 04:14:24;;;;;;;1.63;1.58;;;3.30;78.10;;;;;;5053985;28;20025;-56
2022/01/02 04:16:51;;;;;;;1.95;1.85;;;3.30;78.30;;;;;;5053574;28;20147;-54
2022/01/02 04:19:16;;;;;;;2.00;1.90;;;3.30;78.70;;;;;;5046473;28;20033;-55
2022/01/02 04:21:42;;;;;;;2.13;2.03;;;3.30;79.60;;;;;;5048119;28;20045;-57
2022/01/02 04:24:08;;;;;;;1.98;1.88;;;3.20;79.10;;;;;;5053532;28;20043;-57
2022/01/02 04:26:34;;;;;;;1.90;1.80;;;3.30;79.50;;;;;;5039029;28;20033;-58
2022/01/02 04:28:59;;;;;;;2.00;1.90;;;3.30;79.80;;;;;;5052269;28;20079;-58
2022/01/02 04:31:25;;;;;;;1.77;1.67;;;3.30;79.80;;;;;;5053340;28;20116;-55
2022/01/02 04:33:51;;;;;;;2.03;1.92;;;3.30;79.70;;;;;;5053354;28;20385;-55
2022/01/02 04:36:16;;;;;;;2.28;2.13;;;3.30;79.90;;;;;;5041596;28;20033;-56
2022/01/02 04:38:43;;;;;;;2.13;1.92;;;3.30;79.90;;;;;;5052023;28;20044;-53
2022/01/02 04:41:10;;;;;;;1.80;1.70;;;3.30;80.00;;;;;;5053483;28;20064;-56
2022/01/02 04:43:36;;;;;;;1.90;1.80;;;3.30;79.70;;;;;;5053365;28;20028;-55
2022/01/02 04:46:03;;;;;;;2.00;1.90;;;3.30;79.50;;;;;;5053174;28;20461;-57
2022/01/02 04:48:29;;;;;;;1.90;1.80;;;3.30;79.30;;;;;;5053089;28;20469;-57
2022/01/02 04:50:54;;;;;;;2.15;1.95;;;3.20;79.00;;;;;;5053119;28;20035;-53
2022/01/02 04:53:21;;;;;;;2.10;2.00;;;3.20;78.80;;;;;;5045422;28;20033;-57
2022/01/02 04:55:47;;;;;;;1.77;1.75;;;3.20;78.80;;;;;;5046895;28;20065;-58
2022/01/02 04:58:13;;;;;;;1.90;1.80;;;3.20;78.50;;;;;;5032521;28;20025;-56
2022/01/02 05:00:39;;;;;;;1.90;1.85;;;3.10;78.20;;;;;;5050929;28;20061;-57
2022/01/02 05:03:04;;;;;;;2.00;1.90;;;3.10;78.40;;;;;;5052943;28;20029;-57
2022/01/02 05:05:30;;;;;;;1.90;1.80;;;3.10;78.70;;;;;;5050051;28;20497;-58
2022/01/02 05:07:56;;;;;;;2.00;1.90;;;3.10;78.90;;;;;;5042800;28;20025;-57
2022/01/02 05:10:21;;;;;;;2.15;2.05;;;3.10;78.90;;;;;;5047409;28;20080;-58
2022/01/02 05:12:47;;;;;;;1.92;1.83;;;3.00;78.30;;;;;;5052762;28;20026;-57
2022/01/02 05:15:13;;;;;;;1.75;1.65;;;3.00;77.80;;;;;;5053025;28;20090;-57
2022/01/02 05:17:38;;;;;;;1.83;1.73;;;3.00;77.60;;;;;;5052650;28;20040;-57
2022/01/02 05:20:05;;;;;;;1.83;1.73;;;3.00;77.20;;;;;;5052460;28;20072;-56
2022/01/02 05:22:31;;;;;;;1.83;1.83;;;2.90;77.00;;;;;;5052570;28;20059;-55
2022/01/02 05:24:56;;;;;;;2.20;2.10;;;2.90;76.90;;;;;;5052600;28;20433;-57
2022/01/02 05:27:22;;;;;;;2.00;1.90;;;2.90;76.90;;;;;;5046541;28;20036;-57
2022/01/02 05:29:48;;;;;;;2.30;1.90;;;2.90;76.40;;;;;;5034514;28;20032;-56
2022/01/02 05:32:13;;;;;;;2.10;2.00;;;2.90;76.40;;;;;;5040526;28;20059;-57
2022/01/02 05:34:39;;;;;;;2.10;2.00;;;2.90;76.50;;;;;;5039306;28;20477;-56
2022/01/02 05:37:05;;;;;;;1.83;1.80;;;2.80;76.50;;;;;;5048500;28;20048;-57
2022/01/02 05:39:30;;;;;;;2.00;1.90;;;2.80;76.40;;;;;;5052810;28;20460;-57
2022/01/02 05:41:56;;;;;;;2.20;2.10;;;2.80;76.40;;;;;;5052323;28;20089;-56
2022/01/02 05:44:22;;;;;;;1.92;1.83;;;2.80;76.40;;;;;;5047354;28;20547;-57
2022/01/02 05:46:48;;;;;;;1.77;1.67;;;2.80;76.60;;;;;;5042279;28;20022;-54
2022/01/02 05:49:14;;;;;;;1.90;1.80;;;2.80;76.50;;;;;;5052405;28;20024;-56
2022/01/02 05:51:40;;;;;;;2.58;1.80;;;2.80;76.50;;;;;;5052066;28;20049;-54
2022/01/02 05:54:06;;;;;;;2.10;2.00;;;2.80;76.60;;;;;;5039156;28;20511;-56
2022/01/02 05:56:32;;;;;;;2.13;2.03;;;2.80;76.50;;;;;;5052496;28;20033;-57
2022/01/02 05:58:59;;;;;;;2.05;1.95;;;2.80;76.60;;;;;;5058136;28;20032;-55
2022/01/02 06:01:25;;;;;;;2.28;2.13;;;2.80;76.40;;;;;;5046608;28;20033;-55
2022/01/02 06:03:51;;;;;;;2.17;2.08;;;2.70;75.90;;;;;;5051832;28;20540;-57
2022/01/02 06:06:17;;;;;;;2.35;2.17;;;2.70;75.40;;;;;;5052537;28;20400;-56
2022/01/02 06:08:42;;;;;;;2.67;1.88;;;2.70;75.30;;;;;;5052536;28;20040;-56
2022/01/02 06:11:08;;;;;;;2.13;2.03;;;2.70;75.00;;;;;;5052473;28;20025;-58
2022/01/02 06:13:34;;;;;;;2.53;2.30;;;2.60;75.10;;;;;;5052459;28;20485;-57
2022/01/02 06:15:59;;;;;;;2.00;1.90;;;2.60;75.00;;;;;;5052160;28;20044;-57
2022/01/02 06:18:25;;;;;;;2.30;2.20;;;2.60;75.10;;;;;;5047503;28;20044;-55
2022/01/02 06:20:50;;;;;;;2.42;2.30;;;2.60;75.00;;;;;;5051898;28;20049;-56
2022/01/02 06:23:16;;;;;;;2.17;2.08;;;2.60;74.90;;;;;;5052035;28;20028;-58
2022/01/02 06:25:43;;;;;;;2.17;2.05;;;2.60;74.40;;;;;;5052090;28;20032;-58
2022/01/02 06:28:09;;;;;;;1.80;1.70;;;2.50;73.80;;;;;;5039538;28;20029;-56
2022/01/02 06:30:34;;;;;;;2.00;1.90;;;2.50;73.70;;;;;;5054996;28;20028;-53
2022/01/02 06:33:00;;;;;;;2.10;2.00;;;2.50;73.30;;;;;;5055750;28;20025;-55
2022/01/02 06:35:28;;;;;;;2.20;2.10;;;2.50;73.50;;;;;;5053836;28;20029;-57
2022/01/02 06:37:54;;;;;;;2.10;2.00;;;2.50;73.40;;;;;;5043035;28;20037;-58
2022/01/02 06:40:21;;;;;;;2.00;1.90;;;2.40;73.40;;;;;;5041430;28;20457;-57
2022/01/02 06:42:47;;;;;;;2.10;2.00;;;2.40;73.40;;;;;;5055362;28;20028;-57
2022/01/02 06:45:13;;;;;;;2.15;2.05;;;2.40;73.20;;;;;;5055211;28;20025;-58
2022/01/02 06:47:39;;;;;;;2.20;2.10;;;2.40;73.20;;;;;;5049639;28;20037;-58
2022/01/02 06:50:05;;;;;;;2.50;2.30;;;2.40;73.10;;;;;;5047464;28;20052;-57
2022/01/02 06:52:31;;;;;;;2.10;2.00;;;2.40;73.40;;;;;;5046216;28;20045;-57
2022/01/02 06:54:56;;;;;;;2.10;2.00;;;2.40;73.60;;;;;;5052865;28;20021;-56
2022/01/02 06:57:23;;;;;;;2.58;2.20;;;2.30;73.60;;;;;;5046207;28;20034;-54
2022/01/02 06:59:49;;;;;;;2.15;2.03;;;2.30;73.40;;;;;;5050629;28;20362;-57
2022/01/02 07:02:16;;;;;;;2.60;2.40;;;2.30;73.40;;;;;;5055070;28;20108;-55
2022/01/02 07:04:42;;;;;;;2.33;2.15;;;2.30;73.10;;;;;;5051710;28;20021;-55
2022/01/02 07:07:08;;;;;;;2.50;2.30;;;2.20;72.90;;;;;;5055054;28;20419;-55
2022/01/02 07:09:33;;;;;;;2.35;2.20;;;2.20;73.10;;;;;;5045958;28;20380;-55
2022/01/02 07:12:00;;;;;;;2.83;2.40;;;2.20;73.20;;;;;;5054083;28;20037;-56
2022/01/02 07:14:27;;;;;;;2.50;2.28;;;2.20;73.10;;;;;;5054911;28;20548;-57
2022/01/02 07:16:57;;;;;;;5.05;2.40;;;2.20;72.50;;;;;;5054851;28;20021;-57
2022/01/02 07:19:23;;;;;;;2.33;2.15;;;2.10;72.20;;;;;;5054798;28;20033;-56
2022/01/02 07:21:50;;;;;;;2.30;2.10;;;2.00;71.50;;;;;;5054607;28;20090;-57
2022/01/02 07:24:16;;;;;;;2.33;2.13;;;1.90;70.60;;;;;;5054107;28;20025;-58
2022/01/02 07:26:42;;;;;;;2.00;1.90;;;1.80;70.10;;;;;;5049106;28;20071;-58
2022/01/02 07:29:08;;;;;;;2.63;2.42;;;1.70;70.30;;;;;;5054692;28;20021;-57
2022/01/02 07:31:34;;;;;;;2.20;2.10;;;1.70;70.80;;;;;;5054595;28;20139;-58
2022/01/02 07:33:59;;;;;;;2.00;1.90;;;1.70;71.00;;;;;;5054912;28;20013;-56
2022/01/02 07:36:25;;;;;;;3.13;2.50;;;1.60;71.10;;;;;;5063400;28;20097;-57
2022/01/02 07:38:51;;;;;;;2.55;2.33;;;1.60;71.30;;;;;;5034463;28;20037;-56
2022/01/02 07:41:16;;;;;;;3.10;2.83;;;1.60;71.20;;;;;;5034462;28;20030;-58
2022/01/02 07:43:42;;;;;;;2.22;2.13;;;1.50;71.30;;;;;;5035314;28;20099;-55
2022/01/02 07:46:08;;;;;;;2.58;2.38;;;1.50;71.30;;;;;;5052412;28;20036;-58
2022/01/02 07:48:34;;;;;;;2.50;2.30;;;1.50;71.40;;;;;;5045293;28;20047;-58
2022/01/02 07:50:59;;;;;;;2.95;2.65;;;1.50;71.40;;;;;;5051000;28;20071;-58
2022/01/02 07:53:25;;;;;;;2.83;2.63;;;1.50;71.70;;;;;;5054311;28;20495;-57
2022/01/02 07:55:51;;;;;;;2.70;2.47;;;1.50;71.50;;;;;;5049813;28;20028;-57
2022/01/02 07:58:16;;;;;;;2.97;2.67;;;1.50;71.50;;;;;;5040613;28;20029;-56
2022/01/02 08:00:43;;;;;;;2.80;2.25;;;1.50;71.60;;;;;;5044896;28;20456;-57
2022/01/02 08:03:09;;;;;;;2.72;2.53;;;1.50;71.20;;;;;;5054066;28;20095;-58
2022/01/02 08:05:34;;;;;;;2.58;2.40;;;1.50;72.00;;;;;;5060941;28;20115;-58
2022/01/02 08:08:00;;;;;;;3.10;2.50;;;1.60;71.30;;;;;;5054118;28;20187;-58
2022/01/02 08:10:27;;;;;;;2.50;2.35;;;1.60;71.20;;;;;;5058422;28;20038;-56
2022/01/02 08:12:53;;;;;;;2.38;2.22;;;1.60;71.00;;;;;;5052493;28;20276;-58
2022/01/02 08:15:19;;;;;;;2.95;2.67;;;1.60;71.40;;;;;;5060480;28;20120;-58
2022/01/02 08:17:45;;;;;;;2.80;2.60;;;1.60;71.50;;;;;;5041514;28;20092;-57
2022/01/02 08:20:11;;;;;;;2.78;2.58;;;1.70;71.70;;;;;;5038796;28;20160;-57
2022/01/02 08:22:36;;;;;;;2.83;2.50;;;1.70;71.40;;;;;;5049435;28;20023;-57
2022/01/02 08:25:04;;;;;;;3.17;2.53;;;1.70;71.30;;;;;;5057078;28;20319;-58
2022/01/02 08:27:29;;;;;;;2.50;2.30;;;1.80;71.50;;;;;;5047914;28;20044;-57
2022/01/02 08:29:55;;;;;;;2.65;2.30;;;1.80;71.40;;;;;;5065818;28;20392;-58
2022/01/02 08:32:21;;;;;;;2.70;2.50;;;1.70;71.60;;;;;;5065812;28;20362;-57
2022/01/02 08:34:47;;;;;;;4.22;2.42;;;1.70;71.10;;;;;;5054003;28;20067;-56
2022/01/02 08:37:15;;;;;;;2.50;2.30;;;1.70;71.10;;;;;;5053895;28;20064;-57
2022/01/02 08:39:42;;;;;;;2.78;2.58;;;1.70;71.00;;;;;;5064720;28;20031;-58
2022/01/02 08:42:08;;;;;;;2.50;2.30;;;1.70;71.00;;;;;;5045946;28;20063;-57
2022/01/02 08:44:34;;;;;;;2.83;2.55;;;1.60;71.00;;;;;;5058244;28;20379;-56
2022/01/02 08:46:59;;;;;;;2.60;2.40;;;1.60;71.30;;;;;;5068515;28;20024;-58
2022/01/02 08:49:25;;;;;;;2.50;2.30;;;1.60;71.00;;;;;;5051736;28;20429;-57
2022/01/02 08:51:51;;;;;;;4.18;3.20;;;1.60;71.20;;;;;;5039242;28;20084;-56
2022/01/02 08:54:17;;;;;;;3.35;2.75;;;1.60;71.10;;;;;;5047483;28;20108;-59
2022/01/02 08:56:43;;;;;;;3.05;2.75;;;1.60;71.20;;;;;;5056306;28;20054;-57
2022/01/02 08:59:08;;;;;;;3.03;2.58;;;1.60;71.00;;;;;;5045130;28;20416;-58
2022/01/02 09:01:34;;;;;;;2.90;2.70;;;1.60;71.20;;;;;;5052930;28;20100;-58
2022/01/02 09:03:59;;;;;;;2.80;2.60;;;1.60;70.90;;;;;;5053115;28;20063;-57
2022/01/02 09:06:25;;;;;;;2.38;2.17;;;1.50;70.70;;;;;;5051741;28;20021;-57
2022/01/02 09:08:51;;;;;;;2.70;2.50;;;1.50;70.60;;;;;;5045817;28;20071;-59
2022/01/02 09:11:16;;;;;;;2.30;2.17;;;1.40;70.50;;;;;;5046479;28;20021;-59
2022/01/02 09:13:42;;;;;;;2.53;2.33;;;1.40;70.70;;;;;;5045644;28;20071;-57
2022/01/02 09:16:08;;;;;;;2.60;2.33;;;1.40;70.80;;;;;;5046230;28;20057;-58
2022/01/02 09:18:33;;;;;;;2.50;2.30;;;1.40;71.00;;;;;;5038825;28;20030;-57
2022/01/02 09:21:00;;;;;;;3.75;3.00;;;1.40;71.20;;;;;;5039831;28;20072;-57
2022/01/02 09:23:25;;;;;;;2.50;2.30;;;1.40;70.80;;;;;;5052805;28;20461;-58
2022/01/02 09:25:51;;;;;;;2.90;2.60;;;1.40;70.70;;;;;;5051484;28;20022;-57
2022/01/02 09:28:17;;;;;;;2.40;2.20;;;1.40;70.70;;;;;;5052956;28;20028;-57
2022/01/02 09:30:42;;;;;;;2.65;2.40;;;1.30;70.60;;;;;;5052775;28;20029;-58
2022/01/02 09:33:08;;;;;;;2.55;2.35;;;1.30;70.30;;;;;;5052638;28;20444;-58
2022/01/02 09:35:36;;;;;;;4.53;3.10;;;1.40;70.20;;;;;;5052494;28;20029;-56
2022/01/02 09:38:01;;;;;;;2.65;2.45;;;1.30;70.10;;;;;;5052925;28;20025;-55
2022/01/02 09:40:29;;;;;;;2.47;2.30;;;1.30;70.10;;;;;;5050937;28;20029;-57
2022/01/02 09:42:59;;;;;;;2.70;2.45;;;1.30;70.10;;;;;;5041904;28;20052;-57
2022/01/02 09:45:26;;;;;;;2.78;2.50;;;1.30;69.40;;;;;;5052527;28;20017;-57
2022/01/02 09:47:51;;;;;;;2.60;2.40;;;1.30;69.20;;;;;;5052437;28;20036;-57
2022/01/02 09:50:18;;;;;;;2.47;2.30;;;1.30;69.20;;;;;;5052343;28;20021;-57
2022/01/02 09:52:45;;;;;;;2.78;2.58;;;1.30;69.00;;;;;;5052691;28;20086;-58
2022/01/02 09:55:12;;;;;;;2.90;2.63;;;1.30;68.80;;;;;;5047728;28;20024;-58
2022/01/02 09:57:48;;;;;;;2.95;2.70;;;1.30;69.20;;;;;;5045245;28;20025;-57
2022/01/02 10:00:16;;;;;;;2.72;2.53;;;1.30;69.30;;;;;;5039335;28;20026;-56
2022/01/02 10:03:05;;;;;;;3.08;2.78;;;1.30;69.50;;;;;;5052538;28;20029;-58
2022/01/02 10:05:57;;;;;;;2.65;2.45;;;1.30;69.20;;;;;;5055503;28;20025;-59
2022/01/02 10:08:30;;;;;;;;;;;1.30;69.80;;;;;;5056414;28;20071;-57
2022/01/02 10:11:00;;;;;;;2.50;2.35;;;1.20;69.70;;;;;;5052405;28;19915;-57
2022/01/02 10:14:01;;;;;;;2.93;2.60;;;1.30;69.90;;;;;;5051741;28;20034;-57
2022/01/02 10:16:34;;;;;;;2.95;2.65;;;1.30;69.30;;;;;;5039042;28;20340;-57
2022/01/02 10:19:26;;;;;;;2.35;2.22;;;1.30;69.70;;;;;;5042669;28;20025;-56
2022/01/02 10:22:06;;;;;;;3.25;2.83;;;1.30;69.60;;;;;;5045923;28;20128;-58
2022/01/02 10:24:33;;;;;;;2.97;2.40;;;1.30;69.80;;;;;;5043868;28;20025;-57
2022/01/02 10:27:14;;;;;;;2.90;2.70;;;1.30;70.60;;;;;;5054380;28;20060;-57
2022/01/02 10:29:54;;;;;;;2.80;2.60;;;1.40;70.20;;;;;;5043933;28;20037;-55
2022/01/02 10:32:33;;;;;;;7.38;3.03;;;1.40;70.10;;;;;;5039958;28;20571;-58
2022/01/02 10:35:12;;;;;;;2.83;2.60;;;1.40;70.10;;;;;;5045495;28;20036;-57
2022/01/02 10:37:39;;;;;;;2.80;2.60;;;1.50;70.40;;;;;;5053936;28;20033;-58
2022/01/02 10:40:23;;;;;;;4.03;2.80;;;1.50;70.60;;;;;;5048141;28;20393;-58
2022/01/02 10:42:48;;;;;;;3.03;2.78;;;1.50;70.50;;;;;;5039255;28;20029;-58
2022/01/02 10:45:30;;;;;;;2.97;2.70;;;1.50;70.60;;;;;;5051112;28;20539;-57
2022/01/02 10:47:56;;;;;;;2.42;2.33;;;1.50;70.70;;;;;;5053091;28;20025;-58
2022/01/02 10:50:21;;;;;;;3.25;2.95;;;1.50;70.60;;;;;;5047659;28;20113;-57
2022/01/02 10:52:47;;;;;;;2.70;2.50;;;1.50;70.30;;;;;;5053414;28;20503;-56
2022/01/02 10:55:20;;;;;;;2.90;2.70;;;1.50;70.10;;;;;;5041421;28;20033;-58
2022/01/02 10:57:49;;;;;;;2.92;2.63;;;1.50;70.00;;;;;;5055283;28;20029;-57
2022/01/02 11:00:18;;;;;;;3.22;2.60;;;1.50;70.10;;;;;;5043830;28;20030;-58
2022/01/02 11:02:45;;;;;;;2.67;2.47;;;1.50;69.80;;;;;;5047428;28;20047;-56
2022/01/02 11:05:13;;;;;;;3.30;2.53;;;1.50;69.80;;;;;;5052937;28;20116;-56
2022/01/02 11:07:58;;;;;;;2.70;2.50;;;1.50;69.70;;;;;;5051771;28;20021;-56
2022/01/02 11:10:24;;;;;;;3.10;2.80;;;1.50;69.80;;;;;;5055252;28;20428;-58
2022/01/02 11:12:52;;;;;;;2.60;2.45;;;1.50;70.10;;;;;;5054935;28;20048;-57
2022/01/02 11:15:21;;;;;;;3.33;2.70;;;1.50;70.10;;;;;;5054821;28;20033;-57
2022/01/02 11:17:47;;;;;;;3.28;2.95;;;1.50;70.10;;;;;;5054913;28;20401;-56
2022/01/02 11:20:16;;;;;;;3.28;2.92;;;1.50;70.00;;;;;;5054566;28;20033;-57
2022/01/02 11:22:54;;;;;;;2.63;2.42;;;1.40;70.10;;;;;;5054762;28;20090;-58
2022/01/02 11:25:38;;;;;;;2.40;2.30;;;1.40;70.10;;;;;;5046768;28;20059;-58
2022/01/02 11:28:27;;;;;;;3.45;2.67;;;1.50;69.90;;;;;;5054681;28;20111;-58
2022/01/02 11:30:53;;;;;;;2.85;2.65;;;1.40;69.90;;;;;;5040517;28;20385;-58
2022/01/02 11:33:36;;;;;;;2.60;2.40;;;1.40;69.70;;;;;;5054602;28;20059;-57
2022/01/02 11:36:25;;;;;;;2.83;2.55;;;1.40;69.70;;;;;;5042242;28;20119;-57
2022/01/02 11:39:08;;;;;;;2.70;2.50;;;1.40;69.90;;;;;;5054497;28;20024;-60
2022/01/02 11:41:52;;;;;;;2.65;2.45;;;1.40;70.10;;;;;;5044807;28;20025;-60
2022/01/02 11:44:23;;;;;;;2.70;2.50;;;1.50;70.00;;;;;;5042218;28;20036;-54
2022/01/02 11:46:56;;;;;;;2.70;2.50;;;1.50;69.90;;;;;;5054231;28;20025;-57
2022/01/02 11:49:25;;;;;;;2.83;2.50;;;1.50;70.00;;;;;;5054564;28;20033;-57
2022/01/02 11:51:53;;;;;;;2.63;2.42;;;1.60;69.80;;;;;;5054419;28;20473;-57
2022/01/02 11:54:31;;;;;;;3.15;2.85;;;1.60;69.70;;;;;;5045628;28;20099;-57
2022/01/02 11:56:58;;;;;;;2.90;2.70;;;1.70;69.60;;;;;;5050810;28;20029;-56
2022/01/02 11:59:39;;;;;;;2.67;2.47;;;1.70;69.50;;;;;;5046451;28;20033;-53
2022/01/02 12:02:30;;;;;;;2.97;2.70;;;1.70;69.30;;;;;;5053978;28;20025;-57
2022/01/02 12:05:03;;;;;;;2.80;2.60;;;1.70;69.30;;;;;;5052582;28;20049;-54
2022/01/02 12:07:53;;;;;;;3.08;2.65;;;1.60;69.30;;;;;;5044899;28;20116;-56
2022/01/02 12:10:22;;;;;;;3.08;2.78;;;1.60;69.30;;;;;;5052983;28;20031;-58
2022/01/02 12:12:57;;;;;;;3.33;2.80;;;1.60;69.20;;;;;;5053803;28;20071;-56
2022/01/02 12:15:24;;;;;;;3.10;2.55;;;1.60;69.10;;;;;;5052247;28;20068;-57
2022/01/02 12:18:26;;;;;;;3.72;2.78;;;1.60;68.90;;;;;;5053681;28;20021;-57
2022/01/02 12:23:35;;;;;;;2.58;2.38;;;1.60;69.40;;;;;;5053895;28;20423;-59
2022/01/02 12:26:11;;;;;;;2.85;2.63;;;1.60;68.90;;;;;;5047431;28;20071;-56
2022/01/02 12:28:41;;;;;;;4.22;3.28;;;1.60;68.90;;;;;;5043222;28;20033;-57
2022/01/02 12:31:10;;;;;;;2.72;2.50;;;1.60;69.10;;;;;;5043176;28;20028;-57
2022/01/02 12:33:36;;;;;;;3.47;2.83;;;1.60;69.30;;;;;;5048776;28;20033;-56
2022/01/02 12:36:19;;;;;;;3.17;2.88;;;1.60;69.30;;;;;;5051872;28;20171;-57
2022/01/02 12:38:49;;;;;;;3.03;2.60;;;1.60;69.20;;;;;;5037379;28;20025;-58
2022/01/02 12:41:17;;;;;;;3.53;2.97;;;1.60;69.40;;;;;;5044782;28;20029;-57
2022/01/02 12:44:06;;;;;;;4.35;2.78;;;1.60;69.50;;;;;;5053260;28;20383;-57
2022/01/02 12:46:49;;;;;;;3.00;2.80;;;1.60;69.40;;;;;;5053264;28;20090;-57
2022/01/02 12:49:16;;;;;;;3.03;2.53;;;1.60;69.40;;;;;;5046539;28;20045;-57
2022/01/02 12:51:50;;;;;;;3.45;2.75;;;1.60;69.50;;;;;;5048932;28;20060;-58
2022/01/02 12:54:18;;;;;;;3.10;2.80;;;1.60;69.60;;;;;;5053008;28;20086;-58
2022/01/02 12:56:46;;;;;;;2.78;2.58;;;1.60;69.80;;;;;;5053068;28;20393;-57
2022/01/02 12:59:32;;;;;;;3.00;2.80;;;1.60;69.90;;;;;;5051899;28;20052;-57
2022/01/02 13:02:11;;;;;;;3.08;2.85;;;1.60;69.30;;;;;;5046500;28;20040;-57
2022/01/02 13:04:42;;;;;;;3.58;3.22;;;1.60;69.20;;;;;;5052912;28;20021;-58
2022/01/02 13:07:23;;;;;;;4.20;3.67;;;1.70;69.20;;;;;;5048038;28;20052;-58
2022/01/02 13:09:52;;;;;;;3.30;3.00;;;1.70;69.10;;;;;;5053606;28;20453;-58
2022/01/02 13:12:21;;;;;;;3.85;3.20;;;1.60;68.80;;;;;;5039248;28;20493;-57
2022/01/02 13:14:49;;;;;;;2.90;2.70;;;1.70;68.80;;;;;;5040609;28;20021;-57